Green Sulphur Springs, WV (25966)

10:26 PM EDT on September 04, 2015 (GMT -0400)
KWVALDER3 | | Change Station
CLOSE
Current Station
Personal Weather Station
Location: Blue Sulphur Springs, WV
Elevation: 1719 ft
Nearby Weather Stations

Elev 1719 ft 37.83 °N, 80.64 °W | Updated 32 seconds ago

Partly Cloudy
Partly Cloudy
67.3 °F
Feels Like 67.3 °F
N
0.7
Wind Variable Wind from South
Gusts 0.9 mph

Today
High -- | Low -- °F
--% Chance of Precip.
Yesterday
High -- | Low -- °F
Precip. -- in
6:55 AM 7:48 PM
Waning Gibbous, 53% visible
Pressure 30.11 in
Visibility 5.0 miles
Clouds Few 8000 ft
Few 9000 ft
Dew Point Not available.
Humidity Not available.
Rainfall 0.02 in
Snow Depth Not available.
UV 0 out of 12
Pollen 9.50 out of 12
Air Quality Not available.
Flu Activity Not available.
METAR KBKW 050151Z AUTO 26005KT 5SM BR FEW080 FEW090 19/18 A3020 RMK AO2 LTG DSNT W-N RAE39 SLP196 P0001 T01940178
Pressure 30.11 in
Visibility 5.0 miles
Clouds Few 8000 ft
Few 9000 ft
Dew Point Not available.
Humidity Not available.
Rainfall 0.02 in
Snow Depth Not available.
UV 0 out of 12
Pollen 9.50 out of 12
Air Quality Not available.
Flu Activity Not available.
METAR KBKW 050151Z AUTO 26005KT 5SM BR FEW080 FEW090 19/18 A3020 RMK AO2 LTG DSNT W-N RAE39 SLP196 P0001 T01940178

10-Day Weather Forecast

×

Almanac

Astronomy

Sep. 04, 2015 Rise Set
Actual Time
Civil Twilight
Nautical Twilight
Astronomical Twilight
Moon
Length of Visible Light
Length of Day
Tomorrow will be .
, % of the Moon is Illuminated

Today's Extremes

State Highs State Lows

Community

WunderPhotos

Upload Photos

1,852,391 photos uploaded!

WunderBlogs® & News

Nearby

Air Quality

  Air Quality AQ Index Pollutant
Not available.

Snow Depth

Station Depth Elevation

Earthquake Activity

City Distance Mag. Time & Date
Minimum magnitude displayed is 2.5.

Coastal Water Temperatures

Place Temperature

Stations

Nearby Weather Stations

Station Location Temp. Windchill Dew Point Humidity Wind Precip. Elev Updated Type